Cantua Creek, CA

2:17 AM PDT on July 23, 2014 (GMT -0700)
GFWS112 (KCAKERMA3) Elev 197 ft | 36.65 °N, 120.09 °W | Change Station

Current weather conditions updated 3 minutes ago

Partly Cloudy
Partly Cloudy
65.3 °F
Feels Like 65.3 °F
N
6.0
Wind Variable Wind from NW
Gusts 15.0 mph

Today is forecast to be nearly the same temperature as yesterday.

Today
High -- | Low -- °F
--% Chance of Precip.
Yesterday
High -- | Low -- °F
Precip. -- in
6:00 AM 8:14 PM
Waning Crescent, 11% visible
Pressure 30.04 in
Visibility 10.0 miles
Clouds Clear
Dew Point 58 °F
Humidity 77%
Rainfall 0.00 in
Snow Depth Not available.
UV 0 out of 12
Pollen 5.20 out of 12
Air Quality Not available.
Flu Activity Not available.
METAR KNLC 230856Z AUTO 33015KT 10SM CLR 21/14 A3005 RMK AO2 SLP173 T02060139 51014

More Conditions Fewer Conditions

Pressure 30.04 in
Visibility 10.0 miles
Clouds Clear
Dew Point 58 °F
Humidity 77%
Rainfall 0.00 in
Snow Depth Not available.
UV 0 out of 12
Pollen 5.20 out of 12
Air Quality Not available.
Flu Activity Not available.
METAR KNLC 230856Z AUTO 33015KT 10SM CLR 21/14 A3005 RMK AO2 SLP173 T02060139 51014

More Conditions Fewer Conditions

10-Day Weather Forecast

Almanac

Astronomy

Jul. 23, 2014 Rise Set
Actual Time 6:00 AM PDT 8:14 PM PDT
Civil Twilight 5:31 AM PDT 8:43 PM PDT
Nautical Twilight 4:55 AM PDT 9:19 PM PDT
Astronomical Twilight 4:16 AM PDT 9:58 PM PDT
Moon 3:23 AM PDT 5:48 PM PDT
Length of Visible Light 15h 12m
Length of Day
14h 13m
Tomorrow will be 1m 29s shorter.
Waning Crescent, 11% of the Moon is Illuminated
Today
Waning Crescent
Jul 26
New
Aug 3
First Quarter
Aug 10
Full
Aug 17
Last Quarter

Today's Extremes

State Highs State Lows

Community

WunderPhotos

Upload Photos

1,736,535 photos uploaded!

Nearby

Snow Depth

Station Depth Elevation
Leavitt Lake 0 in 9400 ft
Leavitt Meadows 1 in 7200 ft
Summit Meadow 1 in 9122 ft
Forestdale Creek 0 in 8029 ft
Monitor Pass 0 in 8350 ft

Earthquake Activity

City Distance Mag. Time & Date
Bear Valley Springs, California 127 miles 2.7 6:04 PM PDT
2014-07-17
Gilroy, California 68 miles 2.8 12:30 PM PDT
2014-07-16
Minimum magnitude displayed is 2.5.

Coastal Water Temperatures

Place Temperature
No Stations Reporting

Nearby Weather Stations

Station Location Temp. Dew Point Humidity Wind Precip. Elev Updated Type
MAP MENDOTA (P304) CA , Mendota, CA 69 °F 54 °F 58% NNW  at  7 mph 0.00 in / hr 164 ft 1:00 AM PDT MADIS
GFWS112, Kerman, CA 65.3 °F 58 °F 77% NW  at  6.0 mph 0.00 in / hr 197 ft 2:13 AM PDT Normal
GFWS123, Kerman, CA 65.9 °F 58 °F 76% WNW  at  10.0 mph 0.00 in / hr 220 ft 2:05 AM PDT Normal
GFWS45, Raisin City, CA 67.0 °F 59 °F 75% NNE  at  1.0 mph 0.00 in / hr 223 ft 2:12 AM PDT Normal

Show More Stations Show Fewer Stations